sensor_id;sensor_type;location;lat;lon;timestamp;pressure;altitude;pressure_sealevel;temperature;humidity
73267;BME280;61495;53.400;7.608;2022-11-20T00:00:26;101363.66;;;1.28;85.52
73267;BME280;61495;53.400;7.608;2022-11-20T00:02:51;101365.34;;;1.29;86.21
73267;BME280;61495;53.400;7.608;2022-11-20T00:05:16;101365.34;;;1.29;85.63
73267;BME280;61495;53.400;7.608;2022-11-20T00:07:42;101366.03;;;1.31;85.49
73267;BME280;61495;53.400;7.608;2022-11-20T00:10:08;101370.34;;;1.32;85.70
73267;BME280;61495;53.400;7.608;2022-11-20T00:12:33;101368.66;;;1.31;85.42
73267;BME280;61495;53.400;7.608;2022-11-20T00:14:59;101359.78;;;1.32;85.70
73267;BME280;61495;53.400;7.608;2022-11-20T00:17:25;101354.78;;;1.29;85.91
73267;BME280;61495;53.400;7.608;2022-11-20T00:19:50;101355.63;;;1.30;85.75
73267;BME280;61495;53.400;7.608;2022-11-20T00:22:15;101361.47;;;1.33;85.68
73267;BME280;61495;53.400;7.608;2022-11-20T00:24:41;101359.78;;;1.32;85.90
73267;BME280;61495;53.400;7.608;2022-11-20T00:27:06;101356.19;;;1.33;85.57
73267;BME280;61495;53.400;7.608;2022-11-20T00:29:31;101355.34;;;1.33;85.86
73267;BME280;61495;53.400;7.608;2022-11-20T00:31:57;101357.84;;;1.34;85.65
73267;BME280;61495;53.400;7.608;2022-11-20T00:34:22;101364.81;;;1.35;85.96
73267;BME280;61495;53.400;7.608;2022-11-20T00:36:48;101361.31;;;1.35;85.72
73267;BME280;61495;53.400;7.608;2022-11-20T00:39:13;101359.53;;;1.35;85.68
73267;BME280;61495;53.400;7.608;2022-11-20T00:41:38;101363.97;;;1.35;86.11
73267;BME280;61495;53.400;7.608;2022-11-20T00:44:04;101364.81;;;1.35;85.81
73267;BME280;61495;53.400;7.608;2022-11-20T00:46:29;101358.69;;;1.35;86.01
73267;BME280;61495;53.400;7.608;2022-11-20T00:48:55;101370.09;;;1.35;86.38
73267;BME280;61495;53.400;7.608;2022-11-20T00:51:22;101361.47;;;1.33;86.92
73267;BME280;61495;53.400;7.608;2022-11-20T00:53:48;101358.94;;;1.32;86.04
73267;BME280;61495;53.400;7.608;2022-11-20T00:56:15;101357.16;;;1.32;86.84
73267;BME280;61495;53.400;7.608;2022-11-20T00:58:42;101356.47;;;1.30;86.65
73267;BME280;61495;53.400;7.608;2022-11-20T01:01:24;101353.56;;;1.33;86.40
73267;BME280;61495;53.400;7.608;2022-11-20T01:03:52;101358.56;;;1.36;86.62
73267;BME280;61495;53.400;7.608;2022-11-20T01:06:26;101358.41;;;1.38;86.46
73267;BME280;61495;53.400;7.608;2022-11-20T01:08:54;101351.47;;;1.37;86.35
73267;BME280;61495;53.400;7.608;2022-11-20T01:11:23;101352.28;;;1.37;86.55
73267;BME280;61495;53.400;7.608;2022-11-20T01:13:50;101352.28;;;1.37;86.82
73267;BME280;61495;53.400;7.608;2022-11-20T01:16:19;101351.34;;;1.38;87.09
73267;BME280;61495;53.400;7.608;2022-11-20T01:18:47;101350.38;;;1.39;86.85
73267;BME280;61495;53.400;7.608;2022-11-20T01:21:25;101345.09;;;1.39;86.86
73267;BME280;61495;53.400;7.608;2022-11-20T01:23:51;101344.84;;;1.42;86.58
73267;BME280;61495;53.400;7.608;2022-11-20T01:26:19;101337.88;;;1.41;87.08
73267;BME280;61495;53.400;7.608;2022-11-20T01:28:45;101338.97;;;1.39;86.72
73267;BME280;61495;53.400;7.608;2022-11-20T01:33:37;101341.34;;;1.42;86.62
73267;BME280;61495;53.400;7.608;2022-11-20T01:36:06;101321.47;;;1.38;86.47
73267;BME280;61495;53.400;7.608;2022-11-20T01:38:31;101332.59;;;1.41;86.55
73267;BME280;61495;53.400;7.608;2022-11-20T01:40:56;101320.34;;;1.40;86.93
73267;BME280;61495;53.400;7.608;2022-11-20T01:43:23;101330.91;;;1.40;86.51
73267;BME280;61495;53.400;7.608;2022-11-20T01:46:18;101322.88;;;1.42;86.76
73267;BME280;61495;53.400;7.608;2022-11-20T01:49:10;101323.72;;;1.42;86.96
73267;BME280;61495;53.400;7.608;2022-11-20T01:51:38;101320.91;;;1.44;86.84
73267;BME280;61495;53.400;7.608;2022-11-20T01:54:07;101311.22;;;1.44;86.35
73267;BME280;61495;53.400;7.608;2022-11-20T01:56:36;101323.44;;;1.45;87.03
73267;BME280;61495;53.400;7.608;2022-11-20T01:59:05;101319.81;;;1.46;86.40
73267;BME280;61495;53.400;7.608;2022-11-20T02:01:33;101309.25;;;1.46;86.58
73267;BME280;61495;53.400;7.608;2022-11-20T02:03:59;101310.66;;;1.50;86.48
73267;BME280;61495;53.400;7.608;2022-11-20T02:06:39;101305.38;;;1.50;87.04
73267;BME280;61495;53.400;7.608;2022-11-20T02:09:06;101308.72;;;1.52;86.60
73267;BME280;61495;53.400;7.608;2022-11-20T02:11:31;101302.47;;;1.53;86.70
73267;BME280;61495;53.400;7.608;2022-11-20T02:13:58;101304.16;;;1.54;86.57
73267;BME280;61495;53.400;7.608;2022-11-20T02:16:27;101300.50;;;1.55;86.75
73267;BME280;61495;53.400;7.608;2022-11-20T02:18:55;101292.59;;;1.55;86.62
73267;BME280;61495;53.400;7.608;2022-11-20T02:21:33;101285.66;;;1.54;86.61
73267;BME280;61495;53.400;7.608;2022-11-20T02:24:12;101277.88;;;1.53;86.79
73267;BME280;61495;53.400;7.608;2022-11-20T02:26:53;101280.50;;;1.53;86.56
73267;BME280;61495;53.400;7.608;2022-11-20T02:29:30;101279.53;;;1.54;86.85
73267;BME280;61495;53.400;7.608;2022-11-20T02:31:57;101283.03;;;1.54;86.66
73267;BME280;61495;53.400;7.608;2022-11-20T02:34:23;101282.19;;;1.54;86.94
73267;BME280;61495;53.400;7.608;2022-11-20T02:36:49;101273.16;;;1.56;86.90
73267;BME280;61495;53.400;7.608;2022-11-20T02:39:17;101268.72;;;1.57;86.57
73267;BME280;61495;53.400;7.608;2022-11-20T02:41:44;101273.00;;;1.58;86.57
73267;BME280;61495;53.400;7.608;2022-11-20T02:44:09;101265.34;;;1.55;86.43
73267;BME280;61495;53.400;7.608;2022-11-20T02:46:35;101258.00;;;1.58;86.59
73267;BME280;61495;53.400;7.608;2022-11-20T02:49:02;101258.84;;;1.59;86.89
73267;BME280;61495;53.400;7.608;2022-11-20T02:51:28;101258.00;;;1.58;86.40
73267;BME280;61495;53.400;7.608;2022-11-20T02:53:54;101255.34;;;1.58;86.78
73267;BME280;61495;53.400;7.608;2022-11-20T02:56:19;101260.63;;;1.58;86.70
73267;BME280;61495;53.400;7.608;2022-11-20T02:58:45;101250.06;;;1.58;86.59
73267;BME280;61495;53.400;7.608;2022-11-20T03:01:11;101246.06;;;1.54;86.23
73267;BME280;61495;53.400;7.608;2022-11-20T03:03:36;101245.06;;;1.55;86.50
73267;BME280;61495;53.400;7.608;2022-11-20T03:06:02;101241.59;;;1.55;86.38
73267;BME280;61495;53.400;7.608;2022-11-20T03:08:27;101248.72;;;1.54;86.48
73267;BME280;61495;53.400;7.608;2022-11-20T03:10:53;101250.34;;;1.55;86.49
73267;BME280;61495;53.400;7.608;2022-11-20T03:13:18;101258.16;;;1.57;86.48
73267;BME280;61495;53.400;7.608;2022-11-20T03:15:44;101254.66;;;1.56;86.73
73267;BME280;61495;53.400;7.608;2022-11-20T03:18:09;101253.00;;;1.55;86.38
73267;BME280;61495;53.400;7.608;2022-11-20T03:20:35;101252.03;;;1.56;86.54
73267;BME280;61495;53.400;7.608;2022-11-20T03:23:00;101251.03;;;1.57;86.35
73267;BME280;61495;53.400;7.608;2022-11-20T03:25:26;101243.13;;;1.57;86.00
73267;BME280;61495;53.400;7.608;2022-11-20T03:27:52;101242.31;;;1.57;86.21
73267;BME280;61495;53.400;7.608;2022-11-20T03:30:17;101236.19;;;1.56;86.11
73267;BME280;61495;53.400;7.608;2022-11-20T03:32:43;101236.03;;;1.58;86.34
73267;BME280;61495;53.400;7.608;2022-11-20T03:35:09;101236.19;;;1.56;86.18
73267;BME280;61495;53.400;7.608;2022-11-20T03:37:35;101231.19;;;1.53;86.24
73267;BME280;61495;53.400;7.608;2022-11-20T03:40:00;101241.47;;;1.56;86.27
73267;BME280;61495;53.400;7.608;2022-11-20T03:42:26;101225.63;;;1.56;86.13
73267;BME280;61495;53.400;7.608;2022-11-20T03:45:10;101230.91;;;1.56;86.17
73267;BME280;61495;53.400;7.608;2022-11-20T03:47:36;101232.56;;;1.57;86.12
73267;BME280;61495;53.400;7.608;2022-11-20T03:50:02;101237.03;;;1.57;86.22
73267;BME280;61495;53.400;7.608;2022-11-20T03:52:27;101237.03;;;1.57;85.91
73267;BME280;61495;53.400;7.608;2022-11-20T03:54:52;101225.63;;;1.56;86.26
73267;BME280;61495;53.400;7.608;2022-11-20T03:57:18;101222.16;;;1.56;86.08
73267;BME280;61495;53.400;7.608;2022-11-20T03:59:43;101221.31;;;1.55;86.02
73267;BME280;61495;53.400;7.608;2022-11-20T04:02:08;101223.13;;;1.55;86.15
73267;BME280;61495;53.400;7.608;2022-11-20T04:04:34;101229.22;;;1.55;85.90
73267;BME280;61495;53.400;7.608;2022-11-20T04:06:59;101223.94;;;1.55;85.88
73267;BME280;61495;53.400;7.608;2022-11-20T04:09:25;101221.31;;;1.55;86.11
73267;BME280;61495;53.400;7.608;2022-11-20T04:11:50;101219.34;;;1.57;85.98
73267;BME280;61495;53.400;7.608;2022-11-20T04:14:16;101218.69;;;1.55;86.03
73267;BME280;61495;53.400;7.608;2022-11-20T04:16:42;101209.09;;;1.54;85.82
73267;BME280;61495;53.400;7.608;2022-11-20T04:19:13;101205.63;;;1.54;85.90
73267;BME280;61495;53.400;7.608;2022-11-20T04:21:39;101195.19;;;1.52;86.35
73267;BME280;61495;53.400;7.608;2022-11-20T04:24:06;101194.34;;;1.52;86.01
73267;BME280;61495;53.400;7.608;2022-11-20T04:26:32;101193.53;;;1.51;86.02
73267;BME280;61495;53.400;7.608;2022-11-20T04:28:58;101188.53;;;1.48;86.05
73267;BME280;61495;53.400;7.608;2022-11-20T04:31:26;101184.63;;;1.52;85.89
73267;BME280;61495;53.400;7.608;2022-11-20T04:33:52;101183.13;;;1.50;86.02
73267;BME280;61495;53.400;7.608;2022-11-20T04:36:26;101191.19;;;1.48;86.09
73267;BME280;61495;53.400;7.608;2022-11-20T04:38:53;101182.56;;;1.46;86.45
73267;BME280;61495;53.400;7.608;2022-11-20T04:41:21;101176.44;;;1.46;86.34
73267;BME280;61495;53.400;7.608;2022-11-20T04:43:47;101184.22;;;1.47;86.21
73267;BME280;61495;53.400;7.608;2022-11-20T04:46:14;101184.22;;;1.47;86.30
73267;BME280;61495;53.400;7.608;2022-11-20T04:48:39;101181.59;;;1.47;86.42
73267;BME280;61495;53.400;7.608;2022-11-20T04:51:05;101180.06;;;1.45;85.97
73267;BME280;61495;53.400;7.608;2022-11-20T04:53:30;101190.34;;;1.48;86.42
73267;BME280;61495;53.400;7.608;2022-11-20T04:56:06;101191.19;;;1.48;86.17
73267;BME280;61495;53.400;7.608;2022-11-20T04:58:32;101187.72;;;1.48;86.44
73267;BME280;61495;53.400;7.608;2022-11-20T05:01:12;101187.56;;;1.49;86.19
73267;BME280;61495;53.400;7.608;2022-11-20T05:03:42;101197.16;;;1.50;86.22
73267;BME280;61495;53.400;7.608;2022-11-20T05:06:14;101186.59;;;1.50;86.35
73267;BME280;61495;53.400;7.608;2022-11-20T05:08:40;101187.56;;;1.49;86.34
73267;BME280;61495;53.400;7.608;2022-11-20T05:11:09;101183.94;;;1.50;86.37
73267;BME280;61495;53.400;7.608;2022-11-20T05:13:35;101177.84;;;1.50;86.36
73267;BME280;61495;53.400;7.608;2022-11-20T05:16:02;101173.41;;;1.50;86.57
73267;BME280;61495;53.400;7.608;2022-11-20T05:18:28;101161.16;;;1.49;86.56
73267;BME280;61495;53.400;7.608;2022-11-20T05:20:57;101161.16;;;1.49;86.32
73267;BME280;61495;53.400;7.608;2022-11-20T05:23:23;101169.06;;;1.49;87.03
73267;BME280;61495;53.400;7.608;2022-11-20T05:25:52;101167.44;;;1.48;86.69
73267;BME280;61495;53.400;7.608;2022-11-20T05:28:18;101155.19;;;1.47;86.45
73267;BME280;61495;53.400;7.608;2022-11-20T05:30:44;101156.16;;;1.46;86.45
73267;BME280;61495;53.400;7.608;2022-11-20T05:33:09;101135.59;;;1.40;86.36
73267;BME280;61495;53.400;7.608;2022-11-20T05:35:35;101137.56;;;1.38;87.00
73267;BME280;61495;53.400;7.608;2022-11-20T05:38:00;101143.25;;;1.43;86.63
73267;BME280;61495;53.400;7.608;2022-11-20T05:40:26;101144.22;;;1.42;86.85
73267;BME280;61495;53.400;7.608;2022-11-20T05:42:51;101138.97;;;1.42;86.84
73267;BME280;61495;53.400;7.608;2022-11-20T05:45:17;101149.50;;;1.42;86.89
73267;BME280;61495;53.400;7.608;2022-11-20T05:47:43;101138.97;;;1.42;87.07
73267;BME280;61495;53.400;7.608;2022-11-20T05:50:08;101137.00;;;1.44;86.65
73267;BME280;61495;53.400;7.608;2022-11-20T05:52:34;101137.69;;;1.46;86.74
73267;BME280;61495;53.400;7.608;2022-11-20T05:54:59;101145.59;;;1.46;86.54
73267;BME280;61495;53.400;7.608;2022-11-20T05:57:24;101140.31;;;1.46;86.50
73267;BME280;61495;53.400;7.608;2022-11-20T05:59:50;101133.41;;;1.45;86.61
73267;BME280;61495;53.400;7.608;2022-11-20T06:02:15;101128.13;;;1.45;86.43
73267;BME280;61495;53.400;7.608;2022-11-20T06:04:41;101128.25;;;1.44;86.58
73267;BME280;61495;53.400;7.608;2022-11-20T06:07:06;101126.44;;;1.44;86.55
73267;BME280;61495;53.400;7.608;2022-11-20T06:09:32;101131.72;;;1.44;86.59
73267;BME280;61495;53.400;7.608;2022-11-20T06:11:57;101123.13;;;1.42;86.40
73267;BME280;61495;53.400;7.608;2022-11-20T06:14:23;101123.81;;;1.44;86.55
73267;BME280;61495;53.400;7.608;2022-11-20T06:16:48;101126.44;;;1.44;86.61
73267;BME280;61495;53.400;7.608;2022-11-20T06:19:13;101123.81;;;1.44;86.80
73267;BME280;61495;53.400;7.608;2022-11-20T06:21:40;101130.03;;;1.43;86.48
73267;BME280;61495;53.400;7.608;2022-11-20T06:24:05;101132.00;;;1.41;86.67
73267;BME280;61495;53.400;7.608;2022-11-20T06:26:31;101127.56;;;1.42;86.72
73267;BME280;61495;53.400;7.608;2022-11-20T06:28:56;101122.56;;;1.39;86.83
73267;BME280;61495;53.400;7.608;2022-11-20T06:31:23;101137.84;;;1.45;86.73
73267;BME280;61495;53.400;7.608;2022-11-20T06:33:49;101132.00;;;1.41;86.89
73267;BME280;61495;53.400;7.608;2022-11-20T06:36:17;101138.97;;;1.42;86.63
73267;BME280;61495;53.400;7.608;2022-11-20T06:38:43;101140.59;;;1.43;86.61
73267;BME280;61495;53.400;7.608;2022-11-20T06:41:15;101138.97;;;1.42;86.70
73267;BME280;61495;53.400;7.608;2022-11-20T06:43:41;101133.69;;;1.42;86.35
73267;BME280;61495;53.400;7.608;2022-11-20T06:46:06;101137.28;;;1.41;86.77
73267;BME280;61495;53.400;7.608;2022-11-20T06:48:33;101131.72;;;1.44;86.79
73267;BME280;61495;53.400;7.608;2022-11-20T06:50:59;101140.59;;;1.43;86.73
73267;BME280;61495;53.400;7.608;2022-11-20T06:53:24;101130.03;;;1.43;86.91
73267;BME280;61495;53.400;7.608;2022-11-20T06:55:50;101136.03;;;1.45;86.81
73267;BME280;61495;53.400;7.608;2022-11-20T06:58:16;101122.84;;;1.45;86.81
73267;BME280;61495;53.400;7.608;2022-11-20T07:00:42;101127.13;;;1.46;87.09
73267;BME280;61495;53.400;7.608;2022-11-20T07:03:09;101128.13;;;1.45;86.97
73267;BME280;61495;53.400;7.608;2022-11-20T07:05:35;101125.47;;;1.45;87.07
73267;BME280;61495;53.400;7.608;2022-11-20T07:08:02;101131.56;;;1.46;86.69
73267;BME280;61495;53.400;7.608;2022-11-20T07:10:27;101128.13;;;1.45;87.16
73267;BME280;61495;53.400;7.608;2022-11-20T07:12:53;101128.91;;;1.46;87.03
73267;BME280;61495;53.400;7.608;2022-11-20T07:15:21;101134.19;;;1.46;87.37
73267;BME280;61495;53.400;7.608;2022-11-20T07:17:46;101129.75;;;1.46;86.93
73267;BME280;61495;53.400;7.608;2022-11-20T07:20:13;101125.31;;;1.47;87.24
73267;BME280;61495;53.400;7.608;2022-11-20T07:22:39;101120.88;;;1.47;86.71
73267;BME280;61495;53.400;7.608;2022-11-20T07:25:04;101120.88;;;1.47;86.80
73267;BME280;61495;53.400;7.608;2022-11-20T07:27:30;101123.38;;;1.49;86.99
73267;BME280;61495;53.400;7.608;2022-11-20T07:29:55;101118.91;;;1.49;86.81
73267;BME280;61495;53.400;7.608;2022-11-20T07:32:21;101124.19;;;1.49;87.03
73267;BME280;61495;53.400;7.608;2022-11-20T07:34:47;101127.69;;;1.50;86.75
73267;BME280;61495;53.400;7.608;2022-11-20T07:37:13;101130.19;;;1.51;86.67
73267;BME280;61495;53.400;7.608;2022-11-20T07:39:38;101120.59;;;1.50;86.84
73267;BME280;61495;53.400;7.608;2022-11-20T07:42:03;101125.88;;;1.50;86.92
73267;BME280;61495;53.400;7.608;2022-11-20T07:44:29;101126.72;;;1.51;86.80
73267;BME280;61495;53.400;7.608;2022-11-20T07:46:54;101124.19;;;1.49;87.05
73267;BME280;61495;53.400;7.608;2022-11-20T07:49:20;101131.84;;;1.52;86.93
73267;BME280;61495;53.400;7.608;2022-11-20T07:51:45;101134.47;;;1.52;86.88
73267;BME280;61495;53.400;7.608;2022-11-20T07:54:11;101138.91;;;1.52;86.75
73267;BME280;61495;53.400;7.608;2022-11-20T07:56:36;101138.13;;;1.51;86.97
73267;BME280;61495;53.400;7.608;2022-11-20T07:59:03;101136.28;;;1.52;86.81
73267;BME280;61495;53.400;7.608;2022-11-20T08:01:28;101134.47;;;1.52;86.91
73267;BME280;61495;53.400;7.608;2022-11-20T08:03:53;101133.50;;;1.53;86.73
73267;BME280;61495;53.400;7.608;2022-11-20T08:06:19;101130.88;;;1.53;86.85
73267;BME280;61495;53.400;7.608;2022-11-20T08:08:45;101133.13;;;1.48;86.85
73267;BME280;61495;53.400;7.608;2022-11-20T08:11:10;101120.88;;;1.47;87.04
73267;BME280;61495;53.400;7.608;2022-11-20T08:13:55;101113.94;;;1.46;87.15
73267;BME280;61495;53.400;7.608;2022-11-20T08:19:05;101112.28;;;1.45;86.94
73267;BME280;61495;53.400;7.608;2022-11-20T08:21:30;101113.94;;;1.46;87.19
73267;BME280;61495;53.400;7.608;2022-11-20T08:23:57;101115.72;;;1.46;87.11
73267;BME280;61495;53.400;7.608;2022-11-20T08:26:24;101108.66;;;1.46;86.89
73267;BME280;61495;53.400;7.608;2022-11-20T08:28:52;101114.63;;;1.48;87.06
73267;BME280;61495;53.400;7.608;2022-11-20T08:31:19;101113.63;;;1.49;86.68
73267;BME280;61495;53.400;7.608;2022-11-20T08:33:45;101121.44;;;1.51;86.84
73267;BME280;61495;53.400;7.608;2022-11-20T08:36:10;101115.31;;;1.50;86.85
73267;BME280;61495;53.400;7.608;2022-11-20T08:38:35;101117.00;;;1.51;86.61
73267;BME280;61495;53.400;7.608;2022-11-20T08:41:02;101117.81;;;1.52;86.63
73267;BME280;61495;53.400;7.608;2022-11-20T08:43:47;101120.59;;;1.50;86.41
73267;BME280;61495;53.400;7.608;2022-11-20T08:46:13;101123.63;;;1.55;86.37
73267;BME280;61495;53.400;7.608;2022-11-20T08:48:38;101132.22;;;1.57;86.35
73267;BME280;61495;53.400;7.608;2022-11-20T08:51:04;101131.28;;;1.58;86.26
73267;BME280;61495;53.400;7.608;2022-11-20T08:53:30;101127.78;;;1.58;86.25
73267;BME280;61495;53.400;7.608;2022-11-20T08:55:57;101120.59;;;1.60;86.30
73267;BME280;61495;53.400;7.608;2022-11-20T08:58:23;101117.78;;;1.61;86.38
73267;BME280;61495;53.400;7.608;2022-11-20T09:00:49;101118.47;;;1.63;86.30
73267;BME280;61495;53.400;7.608;2022-11-20T09:03:14;101121.09;;;1.63;86.41
73267;BME280;61495;53.400;7.608;2022-11-20T09:05:39;101109.47;;;1.66;86.24
73267;BME280;61495;53.400;7.608;2022-11-20T09:08:05;101116.25;;;1.68;86.28
73267;BME280;61495;53.400;7.608;2022-11-20T09:10:30;101112.63;;;1.69;86.14
73267;BME280;61495;53.400;7.608;2022-11-20T09:12:56;101115.25;;;1.69;86.19
73267;BME280;61495;53.400;7.608;2022-11-20T09:15:22;101114.97;;;1.73;85.96
73267;BME280;61495;53.400;7.608;2022-11-20T09:20:17;101097.19;;;1.75;86.01
73267;BME280;61495;53.400;7.608;2022-11-20T09:22:42;101105.69;;;1.78;86.06
73267;BME280;61495;53.400;7.608;2022-11-20T09:25:08;101108.84;;;1.82;86.10
73267;BME280;61495;53.400;7.608;2022-11-20T09:27:33;101106.91;;;1.84;86.00
73267;BME280;61495;53.400;7.608;2022-11-20T09:29:58;101107.59;;;1.86;86.17
73267;BME280;61495;53.400;7.608;2022-11-20T09:32:24;101113.41;;;1.89;85.94
73267;BME280;61495;53.400;7.608;2022-11-20T09:34:49;101108.69;;;1.93;86.05
73267;BME280;61495;53.400;7.608;2022-11-20T09:37:15;101100.47;;;1.96;86.07
73267;BME280;61495;53.400;7.608;2022-11-20T09:39:40;101101.81;;;2.00;86.07
73267;BME280;61495;53.400;7.608;2022-11-20T09:50:36;101096.22;;;2.12;85.67
73267;BME280;61495;53.400;7.608;2022-11-20T09:53:33;101096.75;;;2.16;85.57
73267;BME280;61495;53.400;7.608;2022-11-20T09:56:02;101101.75;;;2.19;85.68
73267;BME280;61495;53.400;7.608;2022-11-20T09:58:32;101099.78;;;2.21;85.83
73267;BME280;61495;53.400;7.608;2022-11-20T10:01:09;101108.38;;;2.23;85.84
73267;BME280;61495;53.400;7.608;2022-11-20T10:03:41;101115.34;;;2.24;85.74
73267;BME280;61495;53.400;7.608;2022-11-20T10:06:15;101104.50;;;2.27;85.88
73267;BME280;61495;53.400;7.608;2022-11-20T10:09:07;101107.81;;;2.29;85.94
73267;BME280;61495;53.400;7.608;2022-11-20T10:11:56;101110.16;;;2.32;85.87
73267;BME280;61495;53.400;7.608;2022-11-20T10:19:35;101098.31;;;2.36;85.96
73267;BME280;61495;53.400;7.608;2022-11-20T10:25:05;101098.69;;;2.41;85.81
73267;BME280;61495;53.400;7.608;2022-11-20T10:30:21;101093.81;;;2.46;85.81
73267;BME280;61495;53.400;7.608;2022-11-20T10:32:52;101087.22;;;2.50;85.80
73267;BME280;61495;53.400;7.608;2022-11-20T10:35:28;101083.47;;;2.53;85.89
73267;BME280;61495;53.400;7.608;2022-11-20T10:38:04;101095.94;;;2.60;86.62
73267;BME280;61495;53.400;7.608;2022-11-20T10:40:47;101093.69;;;2.65;86.21
73267;BME280;61495;53.400;7.608;2022-11-20T10:43:21;101095.19;;;2.68;85.99
73267;BME280;61495;53.400;7.608;2022-11-20T10:45:55;101090.91;;;2.67;85.59
73267;BME280;61495;53.400;7.608;2022-11-20T10:48:27;101092.19;;;2.80;86.38
73267;BME280;61495;53.400;7.608;2022-11-20T10:51:40;101095.31;;;2.94;86.94
73267;BME280;61495;53.400;7.608;2022-11-20T10:54:32;101087.13;;;3.05;86.90
73267;BME280;61495;53.400;7.608;2022-11-20T11:00:08;101087.72;;;3.16;85.76
73267;BME280;61495;53.400;7.608;2022-11-20T11:02:50;101086.56;;;3.19;85.34
73267;BME280;61495;53.400;7.608;2022-11-20T11:07:55;101069.47;;;3.31;85.41
73267;BME280;61495;53.400;7.608;2022-11-20T11:10:26;101075.81;;;3.38;85.64
73267;BME280;61495;53.400;7.608;2022-11-20T11:12:53;101080.50;;;3.44;85.56
73267;BME280;61495;53.400;7.608;2022-11-20T11:15:35;101067.94;;;3.46;85.21
73267;BME280;61495;53.400;7.608;2022-11-20T11:18:02;101074.28;;;3.53;85.13
73267;BME280;61495;53.400;7.608;2022-11-20T11:20:29;101058.22;;;3.55;84.27
73267;BME280;61495;53.400;7.608;2022-11-20T11:22:56;101059.41;;;3.60;85.07
73267;BME280;61495;53.400;7.608;2022-11-20T11:25:33;101050.31;;;3.63;84.33
73267;BME280;61495;53.400;7.608;2022-11-20T11:28:17;101050.16;;;3.64;83.99
73267;BME280;61495;53.400;7.608;2022-11-20T11:30:45;101050.69;;;3.68;83.96
73267;BME280;61495;53.400;7.608;2022-11-20T11:33:24;101060.66;;;3.74;84.65
73267;BME280;61495;53.400;7.608;2022-11-20T11:35:54;101051.38;;;3.78;84.40
73267;BME280;61495;53.400;7.608;2022-11-20T11:38:38;101041.94;;;3.75;83.54
73267;BME280;61495;53.400;7.608;2022-11-20T11:41:05;101046.09;;;3.78;84.17
73267;BME280;61495;53.400;7.608;2022-11-20T11:43:34;101037.81;;;3.81;84.42
73267;BME280;61495;53.400;7.608;2022-11-20T11:46:34;101034.34;;;3.80;83.51
73267;BME280;61495;53.400;7.608;2022-11-20T11:49:14;101030.56;;;3.83;83.96
73267;BME280;61495;53.400;7.608;2022-11-20T11:54:47;101018.13;;;3.83;83.87
73267;BME280;61495;53.400;7.608;2022-11-20T11:57:29;101018.13;;;3.83;83.01
73267;BME280;61495;53.400;7.608;2022-11-20T12:00:16;101015.84;;;3.88;83.78
73267;BME280;61495;53.400;7.608;2022-11-20T12:05:42;101005.03;;;3.82;82.29
73267;BME280;61495;53.400;7.608;2022-11-20T12:08:26;100997.13;;;3.90;83.40
73267;BME280;61495;53.400;7.608;2022-11-20T12:15:59;100994.97;;;3.85;81.94
73267;BME280;61495;53.400;7.608;2022-11-20T12:18:25;100994.13;;;3.85;82.06
73267;BME280;61495;53.400;7.608;2022-11-20T12:26:31;100984.72;;;3.99;82.43
73267;BME280;61495;53.400;7.608;2022-11-20T12:29:23;100984.72;;;3.99;82.19
73267;BME280;61495;53.400;7.608;2022-11-20T12:35:04;100997.00;;;4.00;81.97
73267;BME280;61495;53.400;7.608;2022-11-20T12:37:45;100985.75;;;3.98;81.39
73267;BME280;61495;53.400;7.608;2022-11-20T12:43:19;100989.25;;;4.06;82.00
73267;BME280;61495;53.400;7.608;2022-11-20T12:48:56;100976.97;;;4.13;82.69
73267;BME280;61495;53.400;7.608;2022-11-20T12:51:47;100980.66;;;4.12;81.95
73267;BME280;61495;53.400;7.608;2022-11-20T13:02:34;100971.53;;;4.07;81.48
73267;BME280;61495;53.400;7.608;2022-11-20T13:05:19;100973.66;;;4.03;80.91
73267;BME280;61495;53.400;7.608;2022-11-20T13:07:47;100973.47;;;4.05;81.30
73267;BME280;61495;53.400;7.608;2022-11-20T13:10:23;100977.16;;;4.04;81.03
73267;BME280;61495;53.400;7.608;2022-11-20T13:13:19;100966.69;;;4.02;80.84
73267;BME280;61495;53.400;7.608;2022-11-20T13:15:50;100978.78;;;4.05;80.94
73267;BME280;61495;53.400;7.608;2022-11-20T13:18:19;100975.81;;;4.08;81.19
73267;BME280;61495;53.400;7.608;2022-11-20T13:20:46;100968.88;;;4.07;81.24
73267;BME280;61495;53.400;7.608;2022-11-20T13:23:23;100957.56;;;4.05;81.12
73267;BME280;61495;53.400;7.608;2022-11-20T13:25:50;100953.13;;;4.05;81.26
73267;BME280;61495;53.400;7.608;2022-11-20T13:30:53;100948.66;;;4.06;81.71
73267;BME280;61495;53.400;7.608;2022-11-20T13:33:33;100952.44;;;4.03;81.08
73267;BME280;61495;53.400;7.608;2022-11-20T13:36:21;100946.84;;;4.06;81.79
73267;BME280;61495;53.400;7.608;2022-11-20T13:38:51;100946.97;;;4.05;81.48
73267;BME280;61495;53.400;7.608;2022-11-20T13:41:33;100944.50;;;4.03;81.38
73267;BME280;61495;53.400;7.608;2022-11-20T13:44:10;100946.31;;;4.03;81.49
73267;BME280;61495;53.400;7.608;2022-11-20T13:46:44;100945.97;;;3.98;81.43
73267;BME280;61495;53.400;7.608;2022-11-20T13:55:10;100929.38;;;3.87;80.97
73267;BME280;61495;53.400;7.608;2022-11-20T14:00:23;100922.72;;;3.83;81.05
73267;BME280;61495;53.400;7.608;2022-11-20T14:03:17;100916.13;;;3.79;80.60
73267;BME280;61495;53.400;7.608;2022-11-20T14:05:51;100921.75;;;3.76;80.68
73267;BME280;61495;53.400;7.608;2022-11-20T14:08:42;100915.59;;;3.76;81.56
73267;BME280;61495;53.400;7.608;2022-11-20T14:11:23;100910.78;;;3.71;80.82
73267;BME280;61495;53.400;7.608;2022-11-20T14:16:32;100908.44;;;3.68;82.01
73267;BME280;61495;53.400;7.608;2022-11-20T14:21:48;100905.44;;;3.63;82.25
73267;BME280;61495;53.400;7.608;2022-11-20T14:24:18;100900.47;;;3.60;82.23
73267;BME280;61495;53.400;7.608;2022-11-20T14:26:45;100909.44;;;3.59;82.08
73267;BME280;61495;53.400;7.608;2022-11-20T14:29:23;100909.75;;;3.56;82.06
73267;BME280;61495;53.400;7.608;2022-11-20T14:31:53;100893.34;;;3.53;81.65
73267;BME280;61495;53.400;7.608;2022-11-20T14:34:25;100900.59;;;3.51;81.42